sensor_id;sensor_type;location;lat;lon;timestamp;P1;durP1;ratioP1;P2;durP2;ratioP2
62435;SDS011;48480;50.252;18.848;2023-08-06T00:00:51;28.50;;;16.30;;
62435;SDS011;48480;50.252;18.848;2023-08-06T00:03:36;25.10;;;16.10;;
62435;SDS011;48480;50.252;18.848;2023-08-06T00:06:20;29.10;;;16.90;;
62435;SDS011;48480;50.252;18.848;2023-08-06T00:09:05;24.20;;;16.00;;
62435;SDS011;48480;50.252;18.848;2023-08-06T00:11:49;27.70;;;15.00;;
62435;SDS011;48480;50.252;18.848;2023-08-06T00:14:33;24.80;;;14.80;;
62435;SDS011;48480;50.252;18.848;2023-08-06T00:17:17;25.70;;;15.10;;
62435;SDS011;48480;50.252;18.848;2023-08-06T00:20:03;23.80;;;15.20;;
62435;SDS011;48480;50.252;18.848;2023-08-06T00:22:50;22.40;;;14.60;;
62435;SDS011;48480;50.252;18.848;2023-08-06T00:25:36;24.90;;;14.30;;
62435;SDS011;48480;50.252;18.848;2023-08-06T00:28:21;19.70;;;12.70;;
62435;SDS011;48480;50.252;18.848;2023-08-06T00:31:05;21.60;;;13.00;;
62435;SDS011;48480;50.252;18.848;2023-08-06T00:33:49;22.10;;;13.00;;
62435;SDS011;48480;50.252;18.848;2023-08-06T00:36:34;22.20;;;14.10;;
62435;SDS011;48480;50.252;18.848;2023-08-06T00:39:18;24.20;;;14.70;;
62435;SDS011;48480;50.252;18.848;2023-08-06T00:42:04;23.30;;;14.00;;
62435;SDS011;48480;50.252;18.848;2023-08-06T00:44:48;24.00;;;16.00;;
62435;SDS011;48480;50.252;18.848;2023-08-06T00:47:33;19.10;;;13.20;;
62435;SDS011;48480;50.252;18.848;2023-08-06T00:50:17;22.40;;;14.00;;
62435;SDS011;48480;50.252;18.848;2023-08-06T00:53:01;22.40;;;13.90;;
62435;SDS011;48480;50.252;18.848;2023-08-06T00:55:45;21.90;;;12.40;;
62435;SDS011;48480;50.252;18.848;2023-08-06T00:58:30;20.50;;;11.90;;
62435;SDS011;48480;50.252;18.848;2023-08-06T01:01:15;18.60;;;12.30;;
62435;SDS011;48480;50.252;18.848;2023-08-06T01:04:00;21.40;;;13.10;;
62435;SDS011;48480;50.252;18.848;2023-08-06T01:06:48;16.70;;;12.50;;
62435;SDS011;48480;50.252;18.848;2023-08-06T01:12:45;19.10;;;12.90;;
62435;SDS011;48480;50.252;18.848;2023-08-06T01:15:39;18.30;;;12.40;;
62435;SDS011;48480;50.252;18.848;2023-08-06T01:18:29;19.30;;;12.10;;
62435;SDS011;48480;50.252;18.848;2023-08-06T01:21:13;17.70;;;11.60;;
62435;SDS011;48480;50.252;18.848;2023-08-06T01:23:57;16.80;;;11.70;;
62435;SDS011;48480;50.252;18.848;2023-08-06T01:26:53;16.90;;;11.50;;
62435;SDS011;48480;50.252;18.848;2023-08-06T01:29:49;15.00;;;10.70;;
62435;SDS011;48480;50.252;18.848;2023-08-06T01:32:58;16.90;;;12.60;;
62435;SDS011;48480;50.252;18.848;2023-08-06T01:35:44;17.10;;;12.20;;
62435;SDS011;48480;50.252;18.848;2023-08-06T01:38:31;17.30;;;12.20;;
62435;SDS011;48480;50.252;18.848;2023-08-06T01:41:15;16.60;;;11.10;;
62435;SDS011;48480;50.252;18.848;2023-08-06T01:44:00;15.60;;;11.40;;
62435;SDS011;48480;50.252;18.848;2023-08-06T01:46:45;17.90;;;11.70;;
62435;SDS011;48480;50.252;18.848;2023-08-06T01:49:29;14.60;;;10.00;;
62435;SDS011;48480;50.252;18.848;2023-08-06T01:52:14;17.60;;;11.60;;
62435;SDS011;48480;50.252;18.848;2023-08-06T01:54:59;16.50;;;10.90;;
62435;SDS011;48480;50.252;18.848;2023-08-06T01:57:46;15.90;;;10.80;;
62435;SDS011;48480;50.252;18.848;2023-08-06T02:00:32;16.30;;;11.60;;
62435;SDS011;48480;50.252;18.848;2023-08-06T02:03:16;15.50;;;11.70;;
62435;SDS011;48480;50.252;18.848;2023-08-06T02:06:00;15.70;;;11.30;;
62435;SDS011;48480;50.252;18.848;2023-08-06T02:11:35;18.30;;;11.80;;
62435;SDS011;48480;50.252;18.848;2023-08-06T02:14:19;16.20;;;11.10;;
62435;SDS011;48480;50.252;18.848;2023-08-06T02:17:03;17.20;;;11.20;;
62435;SDS011;48480;50.252;18.848;2023-08-06T02:22:42;19.20;;;12.60;;
62435;SDS011;48480;50.252;18.848;2023-08-06T02:25:26;18.00;;;11.90;;
62435;SDS011;48480;50.252;18.848;2023-08-06T02:28:10;20.50;;;14.50;;
62435;SDS011;48480;50.252;18.848;2023-08-06T02:30:54;21.20;;;15.40;;
62435;SDS011;48480;50.252;18.848;2023-08-06T02:33:38;22.70;;;14.50;;
62435;SDS011;48480;50.252;18.848;2023-08-06T02:36:22;21.80;;;15.30;;
62435;SDS011;48480;50.252;18.848;2023-08-06T02:39:13;21.70;;;15.50;;
62435;SDS011;48480;50.252;18.848;2023-08-06T02:41:57;21.70;;;14.60;;
62435;SDS011;48480;50.252;18.848;2023-08-06T02:44:42;22.20;;;15.50;;
62435;SDS011;48480;50.252;18.848;2023-08-06T02:47:26;23.40;;;14.90;;
62435;SDS011;48480;50.252;18.848;2023-08-06T02:50:10;23.60;;;15.20;;
62435;SDS011;48480;50.252;18.848;2023-08-06T02:52:54;19.50;;;14.40;;
62435;SDS011;48480;50.252;18.848;2023-08-06T02:55:38;22.00;;;15.00;;
62435;SDS011;48480;50.252;18.848;2023-08-06T02:58:33;22.60;;;15.80;;
62435;SDS011;48480;50.252;18.848;2023-08-06T03:01:17;20.50;;;14.40;;
62435;SDS011;48480;50.252;18.848;2023-08-06T03:04:01;19.40;;;14.10;;
62435;SDS011;48480;50.252;18.848;2023-08-06T03:06:45;21.40;;;14.10;;
62435;SDS011;48480;50.252;18.848;2023-08-06T03:09:29;23.10;;;14.30;;
62435;SDS011;48480;50.252;18.848;2023-08-06T03:12:14;20.00;;;13.80;;
62435;SDS011;48480;50.252;18.848;2023-08-06T03:14:58;20.70;;;14.20;;
62435;SDS011;48480;50.252;18.848;2023-08-06T03:17:42;21.20;;;13.70;;
62435;SDS011;48480;50.252;18.848;2023-08-06T03:20:28;21.60;;;13.80;;
62435;SDS011;48480;50.252;18.848;2023-08-06T03:23:12;19.00;;;14.30;;
62435;SDS011;48480;50.252;18.848;2023-08-06T03:25:56;18.70;;;13.10;;
62435;SDS011;48480;50.252;18.848;2023-08-06T03:28:44;16.20;;;12.60;;
62435;SDS011;48480;50.252;18.848;2023-08-06T03:31:28;17.90;;;12.20;;
62435;SDS011;48480;50.252;18.848;2023-08-06T03:34:12;17.70;;;12.70;;
62435;SDS011;48480;50.252;18.848;2023-08-06T03:36:57;14.40;;;11.40;;
62435;SDS011;48480;50.252;18.848;2023-08-06T03:39:41;17.00;;;11.80;;
62435;SDS011;48480;50.252;18.848;2023-08-06T03:42:25;14.30;;;11.90;;
62435;SDS011;48480;50.252;18.848;2023-08-06T03:45:09;16.00;;;12.20;;
62435;SDS011;48480;50.252;18.848;2023-08-06T03:47:53;15.10;;;12.00;;
62435;SDS011;48480;50.252;18.848;2023-08-06T03:50:37;14.40;;;12.10;;
62435;SDS011;48480;50.252;18.848;2023-08-06T03:53:22;16.40;;;12.00;;
62435;SDS011;48480;50.252;18.848;2023-08-06T03:56:06;13.80;;;11.30;;
62435;SDS011;48480;50.252;18.848;2023-08-06T03:58:50;17.50;;;12.20;;
62435;SDS011;48480;50.252;18.848;2023-08-06T04:01:35;17.80;;;12.60;;
62435;SDS011;48480;50.252;18.848;2023-08-06T04:04:19;16.40;;;11.90;;
62435;SDS011;48480;50.252;18.848;2023-08-06T04:07:03;18.00;;;13.10;;
62435;SDS011;48480;50.252;18.848;2023-08-06T04:09:51;22.20;;;14.50;;
62435;SDS011;48480;50.252;18.848;2023-08-06T04:12:37;20.50;;;14.40;;
62435;SDS011;48480;50.252;18.848;2023-08-06T04:15:23;28.90;;;14.70;;
62435;SDS011;48480;50.252;18.848;2023-08-06T04:18:07;21.60;;;14.40;;
62435;SDS011;48480;50.252;18.848;2023-08-06T04:20:51;27.80;;;15.50;;
62435;SDS011;48480;50.252;18.848;2023-08-06T04:23:36;34.00;;;17.30;;
62435;SDS011;48480;50.252;18.848;2023-08-06T04:26:20;25.10;;;15.60;;
62435;SDS011;48480;50.252;18.848;2023-08-06T04:29:04;24.50;;;13.70;;
62435;SDS011;48480;50.252;18.848;2023-08-06T04:31:48;24.90;;;15.10;;
62435;SDS011;48480;50.252;18.848;2023-08-06T04:34:32;25.00;;;13.80;;
62435;SDS011;48480;50.252;18.848;2023-08-06T04:37:17;15.80;;;10.00;;
62435;SDS011;48480;50.252;18.848;2023-08-06T04:40:01;10.50;;;6.90;;
62435;SDS011;48480;50.252;18.848;2023-08-06T04:42:45;9.30;;;6.10;;
62435;SDS011;48480;50.252;18.848;2023-08-06T04:45:29;5.40;;;4.20;;
62435;SDS011;48480;50.252;18.848;2023-08-06T04:48:13;6.10;;;4.30;;
62435;SDS011;48480;50.252;18.848;2023-08-06T04:50:57;6.90;;;4.00;;
62435;SDS011;48480;50.252;18.848;2023-08-06T04:53:42;3.90;;;3.00;;
62435;SDS011;48480;50.252;18.848;2023-08-06T04:56:26;3.00;;;2.50;;
62435;SDS011;48480;50.252;18.848;2023-08-06T04:59:10;2.60;;;1.90;;
62435;SDS011;48480;50.252;18.848;2023-08-06T05:01:54;7.40;;;3.10;;
62435;SDS011;48480;50.252;18.848;2023-08-06T05:04:38;3.10;;;2.10;;
62435;SDS011;48480;50.252;18.848;2023-08-06T05:07:22;3.20;;;2.20;;
62435;SDS011;48480;50.252;18.848;2023-08-06T05:10:06;2.90;;;2.20;;
62435;SDS011;48480;50.252;18.848;2023-08-06T05:12:51;2.60;;;1.50;;
62435;SDS011;48480;50.252;18.848;2023-08-06T05:15:35;2.40;;;1.50;;
62435;SDS011;48480;50.252;18.848;2023-08-06T05:18:20;2.10;;;1.20;;
62435;SDS011;48480;50.252;18.848;2023-08-06T05:21:04;1.80;;;0.90;;
62435;SDS011;48480;50.252;18.848;2023-08-06T05:23:48;1.80;;;0.90;;
62435;SDS011;48480;50.252;18.848;2023-08-06T05:26:32;3.20;;;0.80;;
62435;SDS011;48480;50.252;18.848;2023-08-06T05:29:16;2.40;;;0.60;;
62435;SDS011;48480;50.252;18.848;2023-08-06T05:32:00;1.30;;;0.40;;
62435;SDS011;48480;50.252;18.848;2023-08-06T05:34:44;0.70;;;0.30;;
62435;SDS011;48480;50.252;18.848;2023-08-06T05:37:28;1.80;;;0.50;;
62435;SDS011;48480;50.252;18.848;2023-08-06T05:40:13;1.10;;;0.50;;
62435;SDS011;48480;50.252;18.848;2023-08-06T05:42:57;1.70;;;0.40;;
62435;SDS011;48480;50.252;18.848;2023-08-06T05:45:44;0.60;;;0.30;;
62435;SDS011;48480;50.252;18.848;2023-08-06T05:48:30;1.40;;;0.30;;
62435;SDS011;48480;50.252;18.848;2023-08-06T05:51:16;1.20;;;0.30;;
62435;SDS011;48480;50.252;18.848;2023-08-06T05:54:00;0.10;;;0.10;;
62435;SDS011;48480;50.252;18.848;2023-08-06T05:56:45;0.90;;;0.30;;
62435;SDS011;48480;50.252;18.848;2023-08-06T05:59:30;0.70;;;0.50;;
62435;SDS011;48480;50.252;18.848;2023-08-06T06:02:14;1.00;;;0.30;;
62435;SDS011;48480;50.252;18.848;2023-08-06T06:04:58;1.30;;;0.30;;
62435;SDS011;48480;50.252;18.848;2023-08-06T06:07:42;1.80;;;0.30;;
62435;SDS011;48480;50.252;18.848;2023-08-06T06:10:26;0.80;;;0.30;;
62435;SDS011;48480;50.252;18.848;2023-08-06T06:13:11;1.80;;;0.70;;
62435;SDS011;48480;50.252;18.848;2023-08-06T06:15:56;1.00;;;0.30;;
62435;SDS011;48480;50.252;18.848;2023-08-06T06:18:40;0.30;;;0.20;;
62435;SDS011;48480;50.252;18.848;2023-08-06T06:21:24;0.40;;;0.30;;
62435;SDS011;48480;50.252;18.848;2023-08-06T06:24:08;3.40;;;0.50;;
62435;SDS011;48480;50.252;18.848;2023-08-06T06:26:52;1.20;;;0.40;;
62435;SDS011;48480;50.252;18.848;2023-08-06T06:29:36;1.20;;;0.30;;
62435;SDS011;48480;50.252;18.848;2023-08-06T06:32:20;1.50;;;0.50;;
62435;SDS011;48480;50.252;18.848;2023-08-06T06:35:05;2.90;;;0.50;;
62435;SDS011;48480;50.252;18.848;2023-08-06T06:37:50;1.00;;;0.20;;
62435;SDS011;48480;50.252;18.848;2023-08-06T06:40:34;1.00;;;0.20;;
62435;SDS011;48480;50.252;18.848;2023-08-06T06:43:18;0.80;;;0.30;;
62435;SDS011;48480;50.252;18.848;2023-08-06T06:46:02;0.30;;;0.10;;
62435;SDS011;48480;50.252;18.848;2023-08-06T06:48:47;1.10;;;0.30;;
62435;SDS011;48480;50.252;18.848;2023-08-06T06:51:30;2.10;;;0.30;;
62435;SDS011;48480;50.252;18.848;2023-08-06T06:54:15;1.00;;;0.30;;
62435;SDS011;48480;50.252;18.848;2023-08-06T06:56:59;0.60;;;0.20;;
62435;SDS011;48480;50.252;18.848;2023-08-06T06:59:44;0.70;;;0.20;;
62435;SDS011;48480;50.252;18.848;2023-08-06T07:02:29;1.60;;;0.40;;
62435;SDS011;48480;50.252;18.848;2023-08-06T07:05:13;2.40;;;0.40;;
62435;SDS011;48480;50.252;18.848;2023-08-06T07:07:57;1.20;;;0.30;;
62435;SDS011;48480;50.252;18.848;2023-08-06T07:10:41;0.20;;;0.10;;
62435;SDS011;48480;50.252;18.848;2023-08-06T07:13:26;0.40;;;0.20;;
62435;SDS011;48480;50.252;18.848;2023-08-06T07:16:10;0.40;;;0.10;;
62435;SDS011;48480;50.252;18.848;2023-08-06T07:18:54;0.30;;;0.30;;
62435;SDS011;48480;50.252;18.848;2023-08-06T07:21:39;0.80;;;0.40;;
62435;SDS011;48480;50.252;18.848;2023-08-06T07:24:23;0.80;;;0.40;;
62435;SDS011;48480;50.252;18.848;2023-08-06T07:27:07;1.00;;;0.30;;
62435;SDS011;48480;50.252;18.848;2023-08-06T07:29:51;0.90;;;0.30;;
62435;SDS011;48480;50.252;18.848;2023-08-06T07:32:35;0.70;;;0.40;;
62435;SDS011;48480;50.252;18.848;2023-08-06T07:35:19;1.40;;;0.50;;
62435;SDS011;48480;50.252;18.848;2023-08-06T07:38:04;0.30;;;0.20;;
62435;SDS011;48480;50.252;18.848;2023-08-06T07:40:48;0.40;;;0.10;;
62435;SDS011;48480;50.252;18.848;2023-08-06T07:43:33;0.50;;;0.20;;
62435;SDS011;48480;50.252;18.848;2023-08-06T07:46:17;0.60;;;0.30;;
62435;SDS011;48480;50.252;18.848;2023-08-06T07:49:01;0.50;;;0.40;;
62435;SDS011;48480;50.252;18.848;2023-08-06T07:51:46;0.40;;;0.30;;
62435;SDS011;48480;50.252;18.848;2023-08-06T07:54:30;0.10;;;0.10;;
62435;SDS011;48480;50.252;18.848;2023-08-06T07:57:15;1.20;;;0.30;;
62435;SDS011;48480;50.252;18.848;2023-08-06T07:59:58;0.70;;;0.30;;
62435;SDS011;48480;50.252;18.848;2023-08-06T08:02:43;1.10;;;0.20;;
62435;SDS011;48480;50.252;18.848;2023-08-06T08:05:28;0.50;;;0.20;;
62435;SDS011;48480;50.252;18.848;2023-08-06T08:08:13;1.50;;;0.30;;
62435;SDS011;48480;50.252;18.848;2023-08-06T08:10:57;0.60;;;0.20;;
62435;SDS011;48480;50.252;18.848;2023-08-06T08:13:44;0.40;;;0.20;;
62435;SDS011;48480;50.252;18.848;2023-08-06T08:16:28;0.60;;;0.40;;
62435;SDS011;48480;50.252;18.848;2023-08-06T08:19:12;0.40;;;0.40;;
62435;SDS011;48480;50.252;18.848;2023-08-06T08:21:56;0.70;;;0.50;;
62435;SDS011;48480;50.252;18.848;2023-08-06T08:24:40;0.40;;;0.30;;
62435;SDS011;48480;50.252;18.848;2023-08-06T08:27:24;1.20;;;0.40;;
62435;SDS011;48480;50.252;18.848;2023-08-06T08:30:08;0.70;;;0.30;;
62435;SDS011;48480;50.252;18.848;2023-08-06T08:32:44;1.00;;;0.20;;
62435;SDS011;48480;50.252;18.848;2023-08-06T08:35:28;1.40;;;0.30;;
62435;SDS011;48480;50.252;18.848;2023-08-06T08:38:18;0.40;;;0.40;;
62435;SDS011;48480;50.252;18.848;2023-08-06T08:41:02;0.60;;;0.40;;
62435;SDS011;48480;50.252;18.848;2023-08-06T08:43:55;1.30;;;0.40;;
62435;SDS011;48480;50.252;18.848;2023-08-06T08:46:41;0.50;;;0.50;;
62435;SDS011;48480;50.252;18.848;2023-08-06T08:52:17;0.40;;;0.30;;
62435;SDS011;48480;50.252;18.848;2023-08-06T08:57:55;2.00;;;0.50;;
62435;SDS011;48480;50.252;18.848;2023-08-06T09:00:56;0.30;;;0.30;;
62435;SDS011;48480;50.252;18.848;2023-08-06T09:03:42;1.60;;;0.40;;
62435;SDS011;48480;50.252;18.848;2023-08-06T09:06:33;1.10;;;0.40;;
62435;SDS011;48480;50.252;18.848;2023-08-06T09:09:31;0.50;;;0.30;;
62435;SDS011;48480;50.252;18.848;2023-08-06T09:12:11;0.40;;;0.40;;
62435;SDS011;48480;50.252;18.848;2023-08-06T09:14:58;0.50;;;0.20;;
62435;SDS011;48480;50.252;18.848;2023-08-06T09:20:18;0.50;;;0.40;;
62435;SDS011;48480;50.252;18.848;2023-08-06T09:26:05;0.70;;;0.40;;
62435;SDS011;48480;50.252;18.848;2023-08-06T09:37:25;0.90;;;0.50;;
62435;SDS011;48480;50.252;18.848;2023-08-06T09:40:30;1.30;;;0.60;;
62435;SDS011;48480;50.252;18.848;2023-08-06T09:43:15;1.90;;;0.60;;
62435;SDS011;48480;50.252;18.848;2023-08-06T09:45:59;0.60;;;0.50;;
62435;SDS011;48480;50.252;18.848;2023-08-06T09:48:46;0.50;;;0.30;;
62435;SDS011;48480;50.252;18.848;2023-08-06T09:51:32;0.50;;;0.30;;
62435;SDS011;48480;50.252;18.848;2023-08-06T09:54:16;0.30;;;0.30;;
62435;SDS011;48480;50.252;18.848;2023-08-06T09:59:52;0.40;;;0.40;;
62435;SDS011;48480;50.252;18.848;2023-08-06T10:05:16;0.40;;;0.40;;
62435;SDS011;48480;50.252;18.848;2023-08-06T10:08:04;0.20;;;0.20;;
62435;SDS011;48480;50.252;18.848;2023-08-06T10:10:44;0.80;;;0.30;;
62435;SDS011;48480;50.252;18.848;2023-08-06T10:13:30;1.10;;;0.30;;
62435;SDS011;48480;50.252;18.848;2023-08-06T10:16:21;0.70;;;0.30;;
62435;SDS011;48480;50.252;18.848;2023-08-06T10:21:40;0.50;;;0.30;;
62435;SDS011;48480;50.252;18.848;2023-08-06T10:24:17;0.60;;;0.50;;
62435;SDS011;48480;50.252;18.848;2023-08-06T10:27:01;0.60;;;0.40;;
62435;SDS011;48480;50.252;18.848;2023-08-06T10:29:51;0.70;;;0.30;;
62435;SDS011;48480;50.252;18.848;2023-08-06T10:35:55;0.30;;;0.20;;
62435;SDS011;48480;50.252;18.848;2023-08-06T10:38:46;0.70;;;0.40;;
62435;SDS011;48480;50.252;18.848;2023-08-06T10:41:34;0.70;;;0.50;;
62435;SDS011;48480;50.252;18.848;2023-08-06T10:47:27;0.50;;;0.40;;
62435;SDS011;48480;50.252;18.848;2023-08-06T10:50:35;1.60;;;0.50;;
62435;SDS011;48480;50.252;18.848;2023-08-06T10:55:54;1.20;;;0.50;;
62435;SDS011;48480;50.252;18.848;2023-08-06T10:58:38;0.50;;;0.30;;
62435;SDS011;48480;50.252;18.848;2023-08-06T11:01:28;0.90;;;0.80;;
62435;SDS011;48480;50.252;18.848;2023-08-06T11:07:03;1.20;;;0.50;;
62435;SDS011;48480;50.252;18.848;2023-08-06T11:09:49;0.70;;;0.50;;
62435;SDS011;48480;50.252;18.848;2023-08-06T11:12:38;0.70;;;0.70;;
62435;SDS011;48480;50.252;18.848;2023-08-06T11:15:23;1.00;;;0.60;;
62435;SDS011;48480;50.252;18.848;2023-08-06T11:20:44;1.40;;;0.80;;
62435;SDS011;48480;50.252;18.848;2023-08-06T11:23:29;1.80;;;1.00;;
62435;SDS011;48480;50.252;18.848;2023-08-06T11:26:18;1.40;;;0.90;;
62435;SDS011;48480;50.252;18.848;2023-08-06T11:29:03;1.00;;;0.80;;
62435;SDS011;48480;50.252;18.848;2023-08-06T11:31:51;1.00;;;0.70;;
62435;SDS011;48480;50.252;18.848;2023-08-06T11:34:35;0.90;;;0.70;;
62435;SDS011;48480;50.252;18.848;2023-08-06T11:40:08;0.90;;;0.70;;
62435;SDS011;48480;50.252;18.848;2023-08-06T11:45:46;1.00;;;0.50;;
62435;SDS011;48480;50.252;18.848;2023-08-06T11:51:25;0.60;;;0.40;;
62435;SDS011;48480;50.252;18.848;2023-08-06T12:02:16;0.50;;;0.50;;
62435;SDS011;48480;50.252;18.848;2023-08-06T12:05:09;1.00;;;0.60;;
62435;SDS011;48480;50.252;18.848;2023-08-06T12:08:02;1.00;;;0.70;;
62435;SDS011;48480;50.252;18.848;2023-08-06T12:10:47;1.40;;;0.60;;
62435;SDS011;48480;50.252;18.848;2023-08-06T12:13:34;1.10;;;0.70;;
62435;SDS011;48480;50.252;18.848;2023-08-06T12:16:19;1.20;;;0.70;;
62435;SDS011;48480;50.252;18.848;2023-08-06T12:19:06;1.30;;;0.60;;
62435;SDS011;48480;50.252;18.848;2023-08-06T12:21:52;1.20;;;0.80;;
62435;SDS011;48480;50.252;18.848;2023-08-06T12:24:39;0.80;;;0.60;;
62435;SDS011;48480;50.252;18.848;2023-08-06T12:27:25;0.90;;;0.60;;
62435;SDS011;48480;50.252;18.848;2023-08-06T12:30:11;1.40;;;0.70;;
62435;SDS011;48480;50.252;18.848;2023-08-06T12:33:03;1.60;;;0.50;;
62435;SDS011;48480;50.252;18.848;2023-08-06T12:35:49;0.60;;;0.60;;
62435;SDS011;48480;50.252;18.848;2023-08-06T12:38:36;0.90;;;0.40;;
62435;SDS011;48480;50.252;18.848;2023-08-06T12:41:20;1.50;;;0.50;;
62435;SDS011;48480;50.252;18.848;2023-08-06T12:44:04;3.00;;;1.90;;
62435;SDS011;48480;50.252;18.848;2023-08-06T12:46:48;1.00;;;0.60;;
62435;SDS011;48480;50.252;18.848;2023-08-06T12:49:33;0.50;;;0.50;;
62435;SDS011;48480;50.252;18.848;2023-08-06T12:52:17;1.10;;;0.60;;
62435;SDS011;48480;50.252;18.848;2023-08-06T12:55:03;0.90;;;0.40;;
62435;SDS011;48480;50.252;18.848;2023-08-06T12:57:48;1.10;;;0.50;;
62435;SDS011;48480;50.252;18.848;2023-08-06T13:00:34;1.00;;;0.70;;
62435;SDS011;48480;50.252;18.848;2023-08-06T13:03:20;0.80;;;0.60;;
62435;SDS011;48480;50.252;18.848;2023-08-06T13:06:05;2.40;;;1.20;;
62435;SDS011;48480;50.252;18.848;2023-08-06T13:08:49;0.70;;;0.70;;
62435;SDS011;48480;50.252;18.848;2023-08-06T13:11:34;1.60;;;0.90;;
62435;SDS011;48480;50.252;18.848;2023-08-06T13:14:20;1.20;;;0.70;;
62435;SDS011;48480;50.252;18.848;2023-08-06T13:17:04;1.40;;;0.60;;
62435;SDS011;48480;50.252;18.848;2023-08-06T13:19:50;1.60;;;0.80;;
62435;SDS011;48480;50.252;18.848;2023-08-06T13:22:34;2.80;;;1.50;;
62435;SDS011;48480;50.252;18.848;2023-08-06T13:25:21;0.80;;;0.70;;
62435;SDS011;48480;50.252;18.848;2023-08-06T13:28:07;1.80;;;0.70;;
62435;SDS011;48480;50.252;18.848;2023-08-06T13:30:51;0.50;;;0.40;;
62435;SDS011;48480;50.252;18.848;2023-08-06T13:33:35;1.10;;;0.50;;
62435;SDS011;48480;50.252;18.848;2023-08-06T13:36:21;0.40;;;0.40;;
62435;SDS011;48480;50.252;18.848;2023-08-06T13:39:06;1.00;;;0.60;;
62435;SDS011;48480;50.252;18.848;2023-08-06T13:41:51;0.80;;;0.60;;
62435;SDS011;48480;50.252;18.848;2023-08-06T13:44:38;1.80;;;0.70;;
62435;SDS011;48480;50.252;18.848;2023-08-06T13:47:23;1.90;;;1.20;;
62435;SDS011;48480;50.252;18.848;2023-08-06T13:50:09;0.70;;;0.40;;
62435;SDS011;48480;50.252;18.848;2023-08-06T13:52:53;1.50;;;0.60;;
62435;SDS011;48480;50.252;18.848;2023-08-06T13:55:39;0.60;;;0.40;;
62435;SDS011;48480;50.252;18.848;2023-08-06T13:58:24;1.30;;;0.80;;
62435;SDS011;48480;50.252;18.848;2023-08-06T14:01:10;2.20;;;0.60;;
62435;SDS011;48480;50.252;18.848;2023-08-06T14:03:54;1.00;;;0.80;;
62435;SDS011;48480;50.252;18.848;2023-08-06T14:06:38;2.70;;;1.30;;
62435;SDS011;48480;50.252;18.848;2023-08-06T14:09:22;1.80;;;1.10;;
62435;SDS011;48480;50.252;18.848;2023-08-06T14:12:07;0.70;;;0.50;;
62435;SDS011;48480;50.252;18.848;2023-08-06T14:14:51;1.80;;;0.80;;
62435;SDS011;48480;50.252;18.848;2023-08-06T14:17:37;3.10;;;1.10;;
62435;SDS011;48480;50.252;18.848;2023-08-06T14:20:21;0.90;;;0.70;;
62435;SDS011;48480;50.252;18.848;2023-08-06T14:23:04;2.50;;;1.00;;
62435;SDS011;48480;50.252;18.848;2023-08-06T14:25:49;2.20;;;1.40;;
62435;SDS011;48480;50.252;18.848;2023-08-06T14:28:33;1.20;;;0.60;;
62435;SDS011;48480;50.252;18.848;2023-08-06T14:31:19;1.50;;;0.70;;
62435;SDS011;48480;50.252;18.848;2023-08-06T14:34:04;1.40;;;0.80;;
62435;SDS011;48480;50.252;18.848;2023-08-06T14:36:50;1.40;;;0.80;;
62435;SDS011;48480;50.252;18.848;2023-08-06T14:39:34;1.30;;;0.70;;
62435;SDS011;48480;50.252;18.848;2023-08-06T14:42:18;1.50;;;0.80;;
62435;SDS011;48480;50.252;18.848;2023-08-06T14:45:02;1.90;;;0.60;;
62435;SDS011;48480;50.252;18.848;2023-08-06T14:47:48;0.90;;;0.50;;
62435;SDS011;48480;50.252;18.848;2023-08-06T14:50:32;0.80;;;0.50;;
62435;SDS011;48480;50.252;18.848;2023-08-06T14:53:17;0.80;;;0.60;;
62435;SDS011;48480;50.252;18.848;2023-08-06T14:56:07;1.00;;;0.80;;
62435;SDS011;48480;50.252;18.848;2023-08-06T14:58:52;1.20;;;0.60;;
62435;SDS011;48480;50.252;18.848;2023-08-06T15:01:37;1.50;;;0.50;;
62435;SDS011;48480;50.252;18.848;2023-08-06T15:04:22;0.80;;;0.60;;
62435;SDS011;48480;50.252;18.848;2023-08-06T15:07:07;1.50;;;0.70;;
62435;SDS011;48480;50.252;18.848;2023-08-06T15:09:53;0.90;;;0.50;;
62435;SDS011;48480;50.252;18.848;2023-08-06T15:15:30;0.50;;;0.40;;
62435;SDS011;48480;50.252;18.848;2023-08-06T15:18:14;1.20;;;0.60;;
62435;SDS011;48480;50.252;18.848;2023-08-06T15:20:58;1.00;;;0.60;;
62435;SDS011;48480;50.252;18.848;2023-08-06T15:23:42;1.70;;;0.70;;
62435;SDS011;48480;50.252;18.848;2023-08-06T15:26:26;1.60;;;0.70;;
62435;SDS011;48480;50.252;18.848;2023-08-06T15:29:11;1.40;;;0.60;;
62435;SDS011;48480;50.252;18.848;2023-08-06T15:31:55;1.60;;;1.00;;
62435;SDS011;48480;50.252;18.848;2023-08-06T15:34:41;2.50;;;0.70;;
62435;SDS011;48480;50.252;18.848;2023-08-06T15:37:27;3.70;;;1.00;;
62435;SDS011;48480;50.252;18.848;2023-08-06T15:40:12;1.10;;;0.80;;
62435;SDS011;48480;50.252;18.848;2023-08-06T15:42:56;1.10;;;0.80;;
62435;SDS011;48480;50.252;18.848;2023-08-06T15:45:42;2.20;;;0.70;;
62435;SDS011;48480;50.252;18.848;2023-08-06T15:54:14;0.70;;;0.50;;
62435;SDS011;48480;50.252;18.848;2023-08-06T15:57:08;1.10;;;0.60;;
62435;SDS011;48480;50.252;18.848;2023-08-06T15:59:52;0.60;;;0.60;;
62435;SDS011;48480;50.252;18.848;2023-08-06T16:02:37;1.00;;;0.50;;
62435;SDS011;48480;50.252;18.848;2023-08-06T16:08:36;0.80;;;0.60;;
62435;SDS011;48480;50.252;18.848;2023-08-06T16:11:27;0.60;;;0.60;;
62435;SDS011;48480;50.252;18.848;2023-08-06T16:14:12;2.70;;;1.00;;
62435;SDS011;48480;50.252;18.848;2023-08-06T16:16:56;1.10;;;0.70;;
62435;SDS011;48480;50.252;18.848;2023-08-06T16:19:40;1.30;;;0.80;;
62435;SDS011;48480;50.252;18.848;2023-08-06T16:22:25;0.90;;;0.50;;
62435;SDS011;48480;50.252;18.848;2023-08-06T16:25:10;1.10;;;0.70;;
62435;SDS011;48480;50.252;18.848;2023-08-06T16:27:56;3.50;;;1.60;;
62435;SDS011;48480;50.252;18.848;2023-08-06T16:30:46;3.10;;;1.50;;
62435;SDS011;48480;50.252;18.848;2023-08-06T16:33:30;1.60;;;0.80;;
62435;SDS011;48480;50.252;18.848;2023-08-06T16:36:15;3.40;;;0.90;;
62435;SDS011;48480;50.252;18.848;2023-08-06T16:47:07;3.00;;;1.00;;
62435;SDS011;48480;50.252;18.848;2023-08-06T16:49:53;2.60;;;1.40;;
62435;SDS011;48480;50.252;18.848;2023-08-06T16:52:38;4.10;;;1.60;;
62435;SDS011;48480;50.252;18.848;2023-08-06T16:55:22;3.50;;;1.20;;
62435;SDS011;48480;50.252;18.848;2023-08-06T16:58:09;3.70;;;1.20;;
62435;SDS011;48480;50.252;18.848;2023-08-06T17:00:53;3.30;;;1.30;;
62435;SDS011;48480;50.252;18.848;2023-08-06T17:03:40;3.00;;;1.40;;
62435;SDS011;48480;50.252;18.848;2023-08-06T17:06:26;3.10;;;2.00;;
62435;SDS011;48480;50.252;18.848;2023-08-06T17:09:10;4.10;;;2.00;;
62435;SDS011;48480;50.252;18.848;2023-08-06T17:11:56;3.30;;;1.70;;
62435;SDS011;48480;50.252;18.848;2023-08-06T17:14:40;4.20;;;1.70;;
62435;SDS011;48480;50.252;18.848;2023-08-06T17:17:24;3.50;;;1.50;;
62435;SDS011;48480;50.252;18.848;2023-08-06T17:20:09;4.30;;;1.30;;
62435;SDS011;48480;50.252;18.848;2023-08-06T17:22:54;1.90;;;0.90;;
62435;SDS011;48480;50.252;18.848;2023-08-06T17:25:42;3.80;;;1.70;;
62435;SDS011;48480;50.252;18.848;2023-08-06T17:28:29;3.30;;;1.30;;
62435;SDS011;48480;50.252;18.848;2023-08-06T17:31:13;0.80;;;0.70;;
62435;SDS011;48480;50.252;18.848;2023-08-06T17:33:58;2.00;;;0.90;;
62435;SDS011;48480;50.252;18.848;2023-08-06T17:36:42;2.80;;;1.30;;
62435;SDS011;48480;50.252;18.848;2023-08-06T17:39:27;2.10;;;0.80;;
62435;SDS011;48480;50.252;18.848;2023-08-06T17:42:12;5.80;;;1.90;;